Time;durP1;ratioP1;P1;durP2;ratioP2;P2;SDS_P1;SDS_P2;PMS_P1;PMS_P2;Temp;Humidity;BMP_temperature;BMP_pressure;BME280_temperature;BME280_humidity;BME280_pressure;Samples;Min_cycle;Max_cycle;Signal;HPM_P1;HPM_P2
2022/09/24 00:01:26;;;;;;;17.73;16.02;;;14.00;99.90;;;;;;5053458;28;20265;-65
2022/09/24 00:03:59;;;;;;;17.63;16.02;;;13.90;99.90;;;;;;5052805;28;20202;-64
2022/09/24 00:06:26;;;;;;;18.67;16.80;;;13.90;99.90;;;;;;5053648;28;20183;-66
2022/09/24 00:08:54;;;;;;;19.25;17.35;;;13.90;99.90;;;;;;5053386;28;20183;-64
2022/09/24 00:11:20;;;;;;;20.10;18.20;;;13.90;99.90;;;;;;5053439;28;20171;-65
2022/09/24 00:13:47;;;;;;;20.02;18.23;;;13.80;99.90;;;;;;5052045;28;20579;-65
2022/09/24 00:16:15;;;;;;;19.83;17.92;;;13.80;99.90;;;;;;5052961;28;20246;-65
2022/09/24 00:18:41;;;;;;;20.23;18.27;;;13.80;99.90;;;;;;5053421;28;20175;-65
2022/09/24 00:21:16;;;;;;;20.48;18.17;;;13.70;99.90;;;;;;5053359;28;20221;-65
2022/09/24 00:23:42;;;;;;;19.30;17.50;;;13.90;99.90;;;;;;5053264;28;20679;-65
2022/09/24 00:28:58;;;;;;;19.60;17.77;;;13.90;99.90;;;;;;5053452;28;20259;-65
2022/09/24 00:31:24;;;;;;;17.70;15.82;;;13.80;99.90;;;;;;5053297;28;20637;-66
2022/09/24 00:33:51;;;;;;;18.55;16.80;;;13.80;99.90;;;;;;5052049;28;20178;-65
2022/09/24 00:36:21;;;;;;;17.77;15.98;;;13.80;99.90;;;;;;5052079;28;20179;-65
2022/09/24 00:38:52;;;;;;;18.52;16.75;;;13.90;99.90;;;;;;5051938;28;20182;-66
2022/09/24 00:41:22;;;;;;;18.15;16.35;;;13.90;99.90;;;;;;5052922;28;20197;-65
2022/09/24 00:43:48;;;;;;;17.40;15.80;;;13.90;99.90;;;;;;5053492;28;20229;-65
2022/09/24 00:46:39;;;;;;;18.83;16.83;;;13.90;99.90;;;;;;5052940;28;20175;-66
2022/09/24 00:49:13;;;;;;;17.30;15.60;;;14.00;99.90;;;;;;5053162;28;20530;-65
2022/09/24 00:51:41;;;;;;;20.30;17.67;;;13.90;99.90;;;;;;5051670;28;20179;-66
2022/09/24 00:54:28;;;;;;;18.60;16.88;;;13.90;99.90;;;;;;5053027;28;20171;-65
2022/09/24 00:56:56;;;;;;;17.85;16.17;;;13.90;99.90;;;;;;5053111;28;20187;-66
2022/09/24 00:59:24;;;;;;;18.42;16.02;;;14.10;99.90;;;;;;5051880;28;20171;-65
2022/09/24 01:01:52;;;;;;;17.88;16.08;;;14.10;99.90;;;;;;5052858;28;20294;-65
2022/09/24 01:04:21;;;;;;;19.10;17.30;;;14.00;99.90;;;;;;5051743;28;20536;-65
2022/09/24 01:06:48;;;;;;;16.65;15.18;;;13.90;99.90;;;;;;5035683;28;20657;-65
2022/09/24 01:09:19;;;;;;;18.42;16.70;;;13.90;99.90;;;;;;5052950;28;20180;-65
2022/09/24 01:11:47;;;;;;;17.50;14.65;;;14.00;99.90;;;;;;5053072;28;20179;-65
2022/09/24 01:14:40;;;;;;;17.65;15.95;;;14.00;99.90;;;;;;5052740;28;20171;-65
2022/09/24 01:17:12;;;;;;;17.58;15.82;;;14.00;99.90;;;;;;5052979;28;20174;-65
2022/09/24 01:20:15;;;;;;;16.95;15.35;;;14.10;99.90;;;;;;5052730;28;20171;-66
2022/09/24 01:23:18;;;;;;;17.48;15.95;;;14.10;99.90;;;;;;5052478;28;20199;-65
2022/09/24 01:26:11;;;;;;;17.20;15.50;;;14.00;99.90;;;;;;5052932;28;20167;-66
2022/09/24 01:29:04;;;;;;;17.80;15.52;;;13.90;99.90;;;;;;5052936;28;20756;-65
2022/09/24 01:31:45;;;;;;;16.85;15.32;;;13.90;99.90;;;;;;5056979;28;20194;-65
2022/09/24 01:34:16;;;;;;;17.70;16.00;;;13.90;99.90;;;;;;5056468;28;20524;-66
2022/09/24 01:36:44;;;;;;;17.05;15.38;;;13.90;99.90;;;;;;5055769;28;20635;-65
2022/09/24 01:39:13;;;;;;;17.23;15.68;;;13.90;99.90;;;;;;5056185;28;20176;-65
2022/09/24 01:41:41;;;;;;;17.80;16.00;;;14.00;99.90;;;;;;5055977;28;20210;-66
2022/09/24 01:44:08;;;;;;;17.02;15.43;;;14.00;99.90;;;;;;5054753;28;20184;-66
2022/09/24 01:46:37;;;;;;;18.35;16.42;;;13.90;99.90;;;;;;5054898;28;20183;-65
2022/09/24 01:49:05;;;;;;;17.15;15.38;;;14.00;99.90;;;;;;5056091;28;20268;-66
2022/09/24 01:51:37;;;;;;;17.42;15.77;;;13.90;99.90;;;;;;5056028;28;20190;-66
2022/09/24 01:54:14;;;;;;;16.50;14.88;;;13.90;99.90;;;;;;5055924;28;20167;-66
2022/09/24 01:57:15;;;;;;;16.73;15.18;;;14.00;99.90;;;;;;5056321;28;20167;-64
2022/09/24 02:00:10;;;;;;;16.42;14.93;;;14.00;99.90;;;;;;5055446;28;20579;-65
2022/09/24 02:02:46;;;;;;;16.48;14.98;;;13.90;99.90;;;;;;5054688;28;20203;-66
2022/09/24 02:05:22;;;;;;;18.05;16.30;;;14.00;99.90;;;;;;5055864;28;20179;-65
2022/09/24 02:07:57;;;;;;;17.73;15.82;;;14.10;99.90;;;;;;5055729;28;20237;-65
2022/09/24 02:10:22;;;;;;;16.52;15.02;;;14.10;99.90;;;;;;5055619;28;20170;-65
2022/09/24 02:12:55;;;;;;;15.93;14.35;;;14.10;99.90;;;;;;5055721;28;20196;-65
2022/09/24 02:15:33;;;;;;;14.15;12.80;;;14.10;99.90;;;;;;5055674;28;20194;-65
2022/09/24 02:18:05;;;;;;;13.25;12.05;;;14.10;99.90;;;;;;5055453;28;20175;-65
2022/09/24 02:20:34;;;;;;;13.48;12.27;;;14.00;99.90;;;;;;5054231;28;20176;-66
2022/09/24 02:23:02;;;;;;;14.50;12.95;;;14.00;99.90;;;;;;5054035;28;20211;-65
2022/09/24 02:25:34;;;;;;;13.25;12.05;;;14.00;99.90;;;;;;5055497;28;20317;-64
2022/09/24 02:28:01;;;;;;;14.65;13.20;;;13.90;99.90;;;;;;5055433;28;20506;-66
2022/09/24 02:30:28;;;;;;;14.38;13.07;;;13.90;99.90;;;;;;5055522;28;20182;-63
2022/09/24 02:32:55;;;;;;;13.10;12.00;;;14.00;99.90;;;;;;5055255;28;20175;-65
2022/09/24 02:35:22;;;;;;;14.98;13.38;;;14.00;99.90;;;;;;5055197;28;20175;-65
2022/09/24 02:37:47;;;;;;;14.48;13.00;;;14.00;99.90;;;;;;5054950;28;20172;-65
2022/09/24 02:40:14;;;;;;;12.70;11.43;;;14.00;99.90;;;;;;5055033;28;20164;-66
2022/09/24 02:42:41;;;;;;;13.23;11.90;;;13.90;99.90;;;;;;5053948;28;20211;-63
2022/09/24 02:45:07;;;;;;;12.93;11.68;;;13.90;99.90;;;;;;5055038;28;20172;-66
2022/09/24 02:47:33;;;;;;;11.63;10.63;;;13.90;99.90;;;;;;5053633;28;20266;-66
2022/09/24 02:49:59;;;;;;;11.75;10.75;;;13.90;99.90;;;;;;5054823;28;20254;-66
2022/09/24 02:52:25;;;;;;;11.32;10.23;;;13.90;99.90;;;;;;5054643;28;20592;-65
2022/09/24 02:54:51;;;;;;;11.95;10.93;;;13.90;99.90;;;;;;5053563;28;20262;-65
2022/09/24 02:57:17;;;;;;;11.85;10.75;;;13.90;99.90;;;;;;5054856;28;20176;-65
2022/09/24 02:59:44;;;;;;;11.00;10.00;;;13.90;99.90;;;;;;5053313;28;20194;-66
2022/09/24 03:02:10;;;;;;;10.80;9.68;;;13.90;99.90;;;;;;5053264;28;20199;-66
2022/09/24 03:04:36;;;;;;;11.10;10.20;;;13.90;99.90;;;;;;5053329;28;20232;-66
2022/09/24 03:07:02;;;;;;;11.93;10.82;;;14.00;99.90;;;;;;5054414;28;20171;-65
2022/09/24 03:09:28;;;;;;;11.95;10.90;;;13.90;99.90;;;;;;5054951;28;20179;-64
2022/09/24 03:11:59;;;;;;;12.20;11.07;;;13.80;99.90;;;;;;5054526;28;20271;-65
2022/09/24 03:14:25;;;;;;;12.25;11.25;;;13.80;99.90;;;;;;5054512;28;20656;-66
2022/09/24 03:16:51;;;;;;;11.50;10.13;;;13.70;99.90;;;;;;5036608;28;20731;-66
2022/09/24 03:19:16;;;;;;;11.48;10.52;;;13.80;99.90;;;;;;5054174;28;20199;-65
2022/09/24 03:21:42;;;;;;;11.05;10.13;;;13.80;99.90;;;;;;5052900;28;20226;-65
2022/09/24 03:24:08;;;;;;;11.88;10.68;;;13.70;99.90;;;;;;5053207;28;20544;-65
2022/09/24 03:26:33;;;;;;;10.98;9.98;;;13.70;99.90;;;;;;5054066;28;20611;-66
2022/09/24 03:28:59;;;;;;;11.40;10.30;;;13.70;99.90;;;;;;5054149;28;20172;-65
2022/09/24 03:31:25;;;;;;;14.38;10.75;;;13.70;99.90;;;;;;5052881;28;20271;-65
2022/09/24 03:33:51;;;;;;;12.23;11.13;;;13.70;99.90;;;;;;5053952;28;20181;-65
2022/09/24 03:36:24;;;;;;;11.32;10.35;;;13.90;99.90;;;;;;5053935;28;20175;-65
2022/09/24 03:38:54;;;;;;;11.02;10.13;;;13.80;99.90;;;;;;5052859;28;20175;-66
2022/09/24 03:41:21;;;;;;;11.70;10.60;;;13.90;99.90;;;;;;5053861;28;20207;-65
2022/09/24 03:43:46;;;;;;;11.15;10.20;;;13.90;99.90;;;;;;5053840;28;20183;-65
2022/09/24 03:46:14;;;;;;;11.52;10.60;;;13.90;99.90;;;;;;5053812;28;20167;-65
2022/09/24 03:48:41;;;;;;;10.75;9.93;;;13.80;99.90;;;;;;5053576;28;20175;-65
2022/09/24 03:51:09;;;;;;;11.98;10.82;;;13.80;99.90;;;;;;5053567;28;20213;-65
2022/09/24 03:53:35;;;;;;;11.52;10.50;;;13.70;99.90;;;;;;5053485;28;20176;-65
2022/09/24 03:56:02;;;;;;;11.30;10.30;;;13.70;99.90;;;;;;5053587;28;20647;-66
2022/09/24 03:58:30;;;;;;;11.88;10.88;;;13.70;99.90;;;;;;5053586;28;20191;-66
2022/09/24 04:00:56;;;;;;;11.50;10.50;;;13.70;99.90;;;;;;5053452;28;20186;-65
2022/09/24 04:03:23;;;;;;;12.07;10.80;;;13.70;99.90;;;;;;5053704;28;20559;-65
2022/09/24 04:05:52;;;;;;;11.77;10.55;;;13.70;99.90;;;;;;5052307;28;20233;-65
2022/09/24 04:08:22;;;;;;;11.50;10.50;;;13.70;99.90;;;;;;5053489;28;20294;-65
2022/09/24 04:10:49;;;;;;;12.07;10.43;;;13.70;99.90;;;;;;5053445;28;20731;-65
2022/09/24 04:13:16;;;;;;;15.60;11.25;;;13.60;99.90;;;;;;5053685;28;20233;-65
2022/09/24 04:15:42;;;;;;;11.65;10.57;;;13.70;99.90;;;;;;5051875;28;20245;-65
2022/09/24 04:18:08;;;;;;;11.57;10.48;;;13.60;99.90;;;;;;5053416;28;20229;-65
2022/09/24 04:20:34;;;;;;;10.98;9.95;;;13.60;99.90;;;;;;5053240;28;20175;-65
2022/09/24 04:23:01;;;;;;;11.65;10.60;;;13.50;99.90;;;;;;5053154;28;20206;-65
2022/09/24 04:25:32;;;;;;;11.07;10.05;;;13.60;99.90;;;;;;5053215;28;20210;-66
2022/09/24 04:28:03;;;;;;;12.05;10.95;;;13.60;99.90;;;;;;5053220;28;20258;-65
2022/09/24 04:30:31;;;;;;;11.77;10.68;;;13.70;99.90;;;;;;5052062;28;20175;-65
2022/09/24 04:32:59;;;;;;;12.20;10.18;;;13.70;99.90;;;;;;5053028;28;20179;-65
2022/09/24 04:35:26;;;;;;;12.20;10.07;;;13.70;99.90;;;;;;5052325;28;20202;-65
2022/09/24 04:37:52;;;;;;;11.02;9.95;;;13.70;99.90;;;;;;5053048;28;20230;-64
2022/09/24 04:40:18;;;;;;;12.38;11.15;;;13.70;99.90;;;;;;5053065;28;20167;-65
2022/09/24 04:42:45;;;;;;;12.27;11.10;;;13.70;99.90;;;;;;5052869;28;20745;-65
2022/09/24 04:45:12;;;;;;;13.88;11.02;;;13.60;99.90;;;;;;5053169;28;20537;-65
2022/09/24 04:47:39;;;;;;;11.77;10.63;;;13.60;99.90;;;;;;5053393;28;20190;-65
2022/09/24 04:50:07;;;;;;;12.63;11.43;;;13.60;99.90;;;;;;5053060;28;20175;-65
2022/09/24 04:52:33;;;;;;;13.93;12.73;;;13.70;99.90;;;;;;5052935;28;20201;-65
2022/09/24 04:55:00;;;;;;;12.65;11.35;;;13.60;99.90;;;;;;5052942;28;20199;-65
2022/09/24 04:57:28;;;;;;;14.48;13.05;;;13.60;99.90;;;;;;5053435;28;20171;-65
2022/09/24 04:59:54;;;;;;;14.88;13.20;;;13.70;99.90;;;;;;5053095;28;20176;-65
2022/09/24 05:02:20;;;;;;;15.63;13.60;;;13.60;99.90;;;;;;5052965;28;20237;-65
2022/09/24 05:04:46;;;;;;;14.80;13.20;;;13.60;99.90;;;;;;5056661;28;20207;-65
2022/09/24 05:07:12;;;;;;;15.65;14.00;;;13.70;99.90;;;;;;5056749;28;20663;-62
2022/09/24 05:09:37;;;;;;;16.27;14.57;;;13.70;99.90;;;;;;5055592;28;20206;-62
2022/09/24 05:12:04;;;;;;;15.27;13.60;;;13.70;99.90;;;;;;5055740;28;20655;-59
2022/09/24 05:14:30;;;;;;;16.80;15.02;;;13.80;99.90;;;;;;5056474;28;20198;-62
2022/09/24 05:16:58;;;;;;;16.02;14.52;;;13.80;99.90;;;;;;5056819;28;20572;-62
2022/09/24 05:19:24;;;;;;;16.33;14.15;;;13.80;99.90;;;;;;5055393;28;20180;-63
2022/09/24 05:21:50;;;;;;;17.35;14.48;;;13.70;99.90;;;;;;5056408;28;20207;-62
2022/09/24 05:24:15;;;;;;;17.55;15.70;;;13.70;99.90;;;;;;5056254;28;20285;-59
2022/09/24 05:29:25;;;;;;;17.08;15.25;;;13.70;99.90;;;;;;5056668;28;20556;-59
2022/09/24 05:31:51;;;;;;;17.80;15.98;;;13.70;99.90;;;;;;5056139;28;20183;-59
2022/09/24 05:34:17;;;;;;;18.08;16.17;;;13.80;99.90;;;;;;5055036;28;20282;-59
2022/09/24 05:36:44;;;;;;;17.27;15.48;;;13.80;99.90;;;;;;5055065;28;20233;-60
2022/09/24 05:39:10;;;;;;;18.35;15.52;;;13.70;99.90;;;;;;5056102;28;20175;-60
2022/09/24 05:41:40;;;;;;;19.05;15.15;;;13.70;99.90;;;;;;5055086;28;20207;-60
2022/09/24 05:44:06;;;;;;;18.40;16.48;;;13.80;99.90;;;;;;5056003;28;20640;-59
2022/09/24 05:46:32;;;;;;;17.90;15.65;;;13.80;99.90;;;;;;5054936;28;20175;-60
2022/09/24 05:48:58;;;;;;;20.33;17.13;;;13.90;99.90;;;;;;5056056;28;20179;-60
2022/09/24 05:51:24;;;;;;;19.13;17.13;;;13.90;99.90;;;;;;5055847;28;20186;-60
2022/09/24 05:53:49;;;;;;;18.30;16.55;;;13.80;99.90;;;;;;5055869;28;20179;-60
2022/09/24 05:56:16;;;;;;;18.00;16.13;;;13.90;99.90;;;;;;5055971;28;20183;-60
2022/09/24 05:58:41;;;;;;;18.33;16.45;;;13.80;99.90;;;;;;5055753;28;20183;-60
2022/09/24 06:01:07;;;;;;;17.98;16.17;;;13.70;99.90;;;;;;5054389;28;20195;-60
2022/09/24 06:03:33;;;;;;;18.25;16.45;;;13.80;99.90;;;;;;5055648;28;20191;-60
2022/09/24 06:06:00;;;;;;;17.77;16.08;;;13.80;99.90;;;;;;5055558;28;20213;-60
2022/09/24 06:08:28;;;;;;;18.25;16.35;;;13.80;99.90;;;;;;5054643;28;20525;-59
2022/09/24 06:11:01;;;;;;;18.40;16.52;;;13.80;99.90;;;;;;5055435;28;20221;-60
2022/09/24 06:13:28;;;;;;;19.35;17.48;;;13.90;99.90;;;;;;5054364;28;20171;-61
2022/09/24 06:16:06;;;;;;;19.73;17.65;;;13.90;99.90;;;;;;5054452;28;20669;-60
2022/09/24 06:18:37;;;;;;;19.75;17.63;;;14.00;99.90;;;;;;5054081;28;20643;-60
2022/09/24 06:21:06;;;;;;;20.42;18.25;;;13.90;99.90;;;;;;5054219;28;20290;-60
2022/09/24 06:23:35;;;;;;;20.13;18.00;;;13.90;99.90;;;;;;5055424;28;20167;-60
2022/09/24 06:26:01;;;;;;;21.73;19.50;;;13.90;99.90;;;;;;5055402;28;20171;-60
2022/09/24 06:28:27;;;;;;;21.15;18.52;;;13.80;99.90;;;;;;5053940;28;20509;-60
2022/09/24 06:30:53;;;;;;;20.10;18.08;;;13.90;99.90;;;;;;5053568;28;20186;-60
2022/09/24 06:33:19;;;;;;;20.77;18.63;;;13.90;99.90;;;;;;5054967;28;20188;-60
2022/09/24 06:35:45;;;;;;;24.88;19.38;;;13.90;99.90;;;;;;5055258;28;20281;-60
2022/09/24 06:38:13;;;;;;;20.30;18.30;;;13.80;99.90;;;;;;5055065;28;20178;-60
2022/09/24 06:40:40;;;;;;;21.05;18.92;;;13.80;99.90;;;;;;5055186;28;20175;-60
2022/09/24 06:43:06;;;;;;;22.48;20.10;;;13.80;99.90;;;;;;5054610;28;20202;-60
2022/09/24 06:45:32;;;;;;;21.48;19.38;;;13.90;99.90;;;;;;5055259;28;20190;-60
2022/09/24 06:48:00;;;;;;;22.00;19.77;;;13.90;99.90;;;;;;5053738;28;20179;-60
2022/09/24 06:50:31;;;;;;;21.25;19.05;;;13.80;99.90;;;;;;5055031;28;20289;-60
2022/09/24 06:52:57;;;;;;;21.92;19.73;;;13.90;99.90;;;;;;5054820;28;20325;-61
2022/09/24 06:55:23;;;;;;;20.00;18.00;;;13.90;99.90;;;;;;5053715;28;20641;-59
2022/09/24 06:57:49;;;;;;;20.25;17.90;;;13.90;99.90;;;;;;5036922;28;20191;-60
2022/09/24 07:00:16;;;;;;;22.60;19.38;;;14.00;99.90;;;;;;5053366;28;20183;-60
2022/09/24 07:02:42;;;;;;;21.00;19.00;;;13.90;99.90;;;;;;5054832;28;20207;-60
2022/09/24 07:05:08;;;;;;;20.75;18.73;;;14.00;99.90;;;;;;5054750;28;20224;-60
2022/09/24 07:07:36;;;;;;;19.90;17.92;;;14.00;99.90;;;;;;5054665;28;20175;-60
2022/09/24 07:10:06;;;;;;;19.83;17.90;;;14.00;99.90;;;;;;5054578;28;20195;-60
2022/09/24 07:12:33;;;;;;;20.05;18.10;;;13.90;99.90;;;;;;5053181;28;20644;-60
2022/09/24 07:15:00;;;;;;;18.50;16.83;;;14.00;99.90;;;;;;5054333;28;20187;-61
2022/09/24 07:17:27;;;;;;;19.75;17.95;;;13.90;99.90;;;;;;5053187;28;20640;-60
2022/09/24 07:19:53;;;;;;;20.85;17.63;;;14.00;99.90;;;;;;5054394;28;20181;-60
2022/09/24 07:22:19;;;;;;;20.10;18.02;;;13.90;99.90;;;;;;5054364;28;20207;-60
2022/09/24 07:24:45;;;;;;;19.42;17.55;;;14.00;99.90;;;;;;5054244;28;20175;-60
2022/09/24 07:27:12;;;;;;;19.58;17.58;;;13.90;99.90;;;;;;5054031;28;20187;-60
2022/09/24 07:29:38;;;;;;;18.77;16.98;;;14.00;99.90;;;;;;5036395;28;20175;-59
2022/09/24 07:32:03;;;;;;;17.95;16.35;;;14.00;99.90;;;;;;5054139;28;20180;-60
2022/09/24 07:34:30;;;;;;;17.60;15.85;;;13.90;99.90;;;;;;5052909;28;20206;-60
2022/09/24 07:36:56;;;;;;;17.73;16.02;;;13.90;99.90;;;;;;5054000;28;20237;-60
2022/09/24 07:39:22;;;;;;;18.13;16.35;;;14.00;99.90;;;;;;5054218;28;20236;-60
2022/09/24 07:41:51;;;;;;;18.02;16.13;;;14.00;99.90;;;;;;5052555;28;20226;-60
2022/09/24 07:44:19;;;;;;;23.38;17.20;;;14.00;99.90;;;;;;5053789;28;20186;-60
2022/09/24 07:46:47;;;;;;;19.98;17.92;;;14.10;99.90;;;;;;5052719;28;20585;-60
2022/09/24 07:49:13;;;;;;;19.98;17.95;;;14.00;99.90;;;;;;5052624;28;20183;-60
2022/09/24 07:51:39;;;;;;;19.17;17.27;;;14.10;99.90;;;;;;5052547;28;20183;-60
2022/09/24 07:54:04;;;;;;;21.05;18.75;;;14.10;99.90;;;;;;5053726;28;20175;-60
2022/09/24 07:56:34;;;;;;;19.90;18.00;;;14.10;99.90;;;;;;5052350;28;20258;-60
2022/09/24 07:58:59;;;;;;;21.55;19.45;;;14.20;99.90;;;;;;5052597;28;20175;-61
2022/09/24 08:01:26;;;;;;;20.77;18.83;;;14.20;99.90;;;;;;5053609;28;20549;-61
2022/09/24 08:03:52;;;;;;;21.80;19.65;;;14.30;99.90;;;;;;5053401;28;20556;-60
2022/09/24 08:06:20;;;;;;;22.88;20.45;;;14.30;99.90;;;;;;5053453;28;20660;-60
2022/09/24 08:08:49;;;;;;;20.90;18.83;;;14.30;99.90;;;;;;5053308;28;20179;-61
2022/09/24 08:11:16;;;;;;;19.58;17.48;;;14.20;99.90;;;;;;5053325;28;20644;-60
2022/09/24 08:13:42;;;;;;;20.13;18.08;;;14.10;99.90;;;;;;5053782;28;20572;-60
2022/09/24 08:16:07;;;;;;;19.85;18.00;;;14.10;99.90;;;;;;5053628;28;20199;-60
2022/09/24 08:18:33;;;;;;;22.95;20.45;;;14.10;99.90;;;;;;5053250;28;20184;-60
2022/09/24 08:21:03;;;;;;;20.27;18.35;;;14.20;99.90;;;;;;5053331;28;20629;-62
2022/09/24 08:23:31;;;;;;;21.88;19.70;;;14.10;99.90;;;;;;5053276;28;20249;-62
2022/09/24 08:25:56;;;;;;;22.95;19.92;;;14.10;99.90;;;;;;5052238;28;20205;-62
2022/09/24 08:28:22;;;;;;;22.10;19.80;;;14.20;99.90;;;;;;5053355;28;20266;-61
2022/09/24 08:30:48;;;;;;;22.80;20.52;;;14.30;99.90;;;;;;5053148;28;20651;-62
2022/09/24 08:33:14;;;;;;;22.67;20.48;;;14.30;99.90;;;;;;5035425;28;20175;-62
2022/09/24 08:35:40;;;;;;;23.25;21.13;;;14.30;99.90;;;;;;5051954;28;20309;-62
2022/09/24 08:38:07;;;;;;;23.52;21.02;;;14.20;99.90;;;;;;5055434;28;20197;-61
2022/09/24 08:40:46;;;;;;;21.27;19.30;;;14.10;99.90;;;;;;5058741;28;20573;-61
2022/09/24 08:43:18;;;;;;;22.95;20.65;;;14.20;99.90;;;;;;5059698;28;20206;-62
2022/09/24 08:48:41;;;;;;;23.98;21.35;;;14.20;99.90;;;;;;5059924;28;20177;-62
2022/09/24 08:51:13;;;;;;;20.55;18.67;;;14.40;99.90;;;;;;5059867;28;20205;-62
2022/09/24 08:54:03;;;;;;;25.10;22.40;;;14.40;99.90;;;;;;5059792;28;20171;-61
2022/09/24 08:56:34;;;;;;;29.27;24.08;;;14.40;99.90;;;;;;5059931;28;20171;-61
2022/09/24 08:59:03;;;;;;;24.10;21.50;;;14.30;99.90;;;;;;5059541;28;20637;-61
2022/09/24 09:01:43;;;;;;;23.13;20.92;;;14.40;99.90;;;;;;5059677;28;20199;-61
2022/09/24 09:04:47;;;;;;;24.77;22.27;;;14.40;99.90;;;;;;5059795;28;20693;-61
2022/09/24 09:07:21;;;;;;;24.85;21.98;;;14.40;99.90;;;;;;5050199;28;20636;-61
2022/09/24 09:10:01;;;;;;;25.75;22.92;;;14.30;99.90;;;;;;5059678;28;20688;-62
2022/09/24 09:12:41;;;;;;;25.27;22.65;;;14.30;99.90;;;;;;5059572;28;20178;-62
2022/09/24 09:15:12;;;;;;;25.70;22.95;;;14.30;99.90;;;;;;5059757;28;20244;-62
2022/09/24 09:17:57;;;;;;;23.77;21.50;;;14.40;99.90;;;;;;5059273;28;20167;-61
2022/09/24 09:20:53;;;;;;;27.27;22.75;;;14.50;99.90;;;;;;5059605;28;20198;-62
2022/09/24 09:23:31;;;;;;;24.30;21.77;;;14.40;99.90;;;;;;5049659;28;20260;-61
2022/09/24 09:25:59;;;;;;;31.73;24.58;;;14.40;99.90;;;;;;5059259;28;20195;-62
2022/09/24 09:28:28;;;;;;;25.60;23.10;;;14.40;99.90;;;;;;5041631;28;20203;-62
2022/09/24 09:31:44;;;;;;;25.83;23.15;;;14.40;99.90;;;;;;5058248;28;20175;-62
2022/09/24 09:34:30;;;;;;;25.63;22.92;;;14.30;99.90;;;;;;5017186;28;20180;-62
2022/09/24 09:37:20;;;;;;;24.83;22.38;;;14.60;99.90;;;;;;5056443;28;20183;-62
2022/09/24 09:40:23;;;;;;;25.65;22.95;;;14.50;99.90;;;;;;5059416;28;20174;-62
2022/09/24 09:42:49;;;;;;;24.48;22.02;;;14.60;99.90;;;;;;5057781;28;20206;-61
2022/09/24 09:45:53;;;;;;;24.58;22.08;;;14.40;99.90;;;;;;5059134;28;20179;-60
2022/09/24 09:48:23;;;;;;;23.00;20.70;;;14.60;99.90;;;;;;5057197;28;20187;-62
2022/09/24 09:50:58;;;;;;;24.13;21.88;;;14.70;99.90;;;;;;5054894;28;20179;-62
2022/09/24 09:53:26;;;;;;;24.83;22.25;;;14.80;99.90;;;;;;5055879;28;20643;-62
2022/09/24 09:56:04;;;;;;;27.95;23.70;;;14.80;99.90;;;;;;5056163;28;20179;-61
2022/09/24 09:58:35;;;;;;;24.50;21.90;;;14.80;99.90;;;;;;5055893;28;20187;-62
2022/09/24 10:01:05;;;;;;;23.38;20.98;;;14.80;99.90;;;;;;5055853;28;20625;-62
2022/09/24 10:03:45;;;;;;;25.38;22.88;;;14.90;99.90;;;;;;5055631;28;20215;-62
2022/09/24 10:06:32;;;;;;;25.25;22.83;;;14.80;99.90;;;;;;5055912;28;20171;-62
2022/09/24 10:09:16;;;;;;;24.42;22.08;;;14.70;99.90;;;;;;5055709;28;20388;-62
2022/09/24 10:11:42;;;;;;;24.17;21.88;;;14.80;99.90;;;;;;5054337;28;20183;-62
2022/09/24 10:14:17;;;;;;;24.13;21.83;;;14.90;99.90;;;;;;5055225;28;20182;-62
2022/09/24 10:16:46;;;;;;;25.08;22.67;;;15.10;99.90;;;;;;5055815;28;20652;-62
2022/09/24 10:19:33;;;;;;;25.40;22.92;;;15.00;99.90;;;;;;5055430;28;20562;-62
2022/09/24 10:22:08;;;;;;;26.70;23.83;;;15.00;99.90;;;;;;5055356;28;20206;-62
2022/09/24 10:24:35;;;;;;;24.95;22.50;;;15.00;99.90;;;;;;5055368;28;20170;-62
2022/09/24 10:27:13;;;;;;;25.90;23.33;;;15.10;99.90;;;;;;5055726;28;20174;-62
2022/09/24 10:32:28;;;;;;;25.05;22.70;;;15.10;99.90;;;;;;5055550;28;20193;-62
2022/09/24 10:34:59;;;;;;;25.48;23.00;;;15.00;99.90;;;;;;5054883;28;20189;-61
2022/09/24 10:37:25;;;;;;;25.38;22.88;;;15.10;99.90;;;;;;5055383;28;20195;-62
2022/09/24 10:40:12;;;;;;;28.23;25.33;;;15.20;99.90;;;;;;5055520;28;20210;-61
2022/09/24 10:42:37;;;;;;;25.65;23.15;;;15.30;99.90;;;;;;5055097;28;20202;-62
2022/09/24 10:45:09;;;;;;;25.23;22.83;;;15.20;99.90;;;;;;5054383;28;20176;-61
2022/09/24 10:48:04;;;;;;;26.58;23.70;;;15.30;99.90;;;;;;5053668;28;20179;-62
2022/09/24 10:50:53;;;;;;;28.33;25.52;;;15.40;99.90;;;;;;5053748;28;20175;-62
2022/09/24 10:53:41;;;;;;;27.55;24.88;;;15.40;99.90;;;;;;5054758;28;20186;-61
2022/09/24 10:56:18;;;;;;;26.48;23.85;;;15.40;99.90;;;;;;5053693;28;20641;-61
2022/09/24 10:59:08;;;;;;;25.70;23.25;;;15.30;99.90;;;;;;5053364;28;20530;-61
2022/09/24 11:02:00;;;;;;;27.02;24.50;;;15.30;99.90;;;;;;5054383;28;20302;-62
2022/09/24 11:04:48;;;;;;;27.48;24.95;;;15.30;99.90;;;;;;5054832;28;20171;-62
2022/09/24 11:07:51;;;;;;;26.52;23.98;;;15.10;99.90;;;;;;5054261;28;20537;-62
2022/09/24 11:10:35;;;;;;;24.95;22.65;;;15.10;99.90;;;;;;5052380;28;20163;-62
2022/09/24 11:13:47;;;;;;;24.80;22.52;;;15.00;99.90;;;;;;5052506;28;20175;-62
2022/09/24 11:16:22;;;;;;;20.80;18.92;;;14.90;99.90;;;;;;5036276;28;20218;-62
2022/09/24 11:18:57;;;;;;;17.27;15.77;;;14.80;99.90;;;;;;5052812;28;20171;-61
2022/09/24 11:21:35;;;;;;;18.23;16.52;;;14.70;99.90;;;;;;5051684;28;20170;-62
2022/09/24 11:24:21;;;;;;;16.50;14.93;;;14.60;99.90;;;;;;5053337;28;20258;-62
2022/09/24 11:27:12;;;;;;;13.23;11.93;;;14.70;99.90;;;;;;5054317;28;20168;-62
2022/09/24 11:30:05;;;;;;;9.00;8.10;;;14.60;99.90;;;;;;5054397;28;20160;-62
2022/09/24 11:32:55;;;;;;;8.20;5.85;;;14.50;99.90;;;;;;5054014;28;20179;-62
2022/09/24 11:35:41;;;;;;;4.50;3.88;;;14.50;99.90;;;;;;5054126;28;20172;-62
2022/09/24 11:38:13;;;;;;;6.80;3.88;;;14.30;99.90;;;;;;5053962;28;20518;-62
2022/09/24 11:41:12;;;;;;;4.15;3.35;;;14.30;99.90;;;;;;5052724;28;20181;-61
2022/09/24 11:43:41;;;;;;;4.45;3.80;;;14.30;99.90;;;;;;5053767;28;20282;-61
2022/09/24 11:46:41;;;;;;;6.53;4.47;;;14.30;99.90;;;;;;5053890;28;20640;-61
2022/09/24 11:49:37;;;;;;;8.30;4.40;;;14.30;99.90;;;;;;5053881;28;20176;-61
2022/09/24 11:52:12;;;;;;;5.85;4.82;;;14.30;99.90;;;;;;5053750;28;20183;-61
2022/09/24 11:54:57;;;;;;;6.72;5.03;;;14.30;99.90;;;;;;5053699;28;20246;-62
2022/09/24 11:57:38;;;;;;;7.43;5.25;;;14.40;99.90;;;;;;5052528;28;20179;-61
2022/09/24 12:00:11;;;;;;;10.02;5.78;;;14.40;99.90;;;;;;5053682;28;20225;-61
2022/09/24 12:03:02;;;;;;;7.55;4.72;;;14.40;99.90;;;;;;5053393;28;20793;-61
2022/09/24 12:05:45;;;;;;;8.65;5.15;;;14.50;99.90;;;;;;5053571;28;20225;-61
2022/09/24 12:08:53;;;;;;;6.60;4.85;;;14.50;99.90;;;;;;5053440;28;20675;-61
2022/09/24 12:11:34;;;;;;;6.40;4.65;;;14.50;99.90;;;;;;5041129;28;20568;-61
2022/09/24 12:14:11;;;;;;;8.73;5.20;;;14.50;99.90;;;;;;5052680;28;20175;-61
2022/09/24 12:16:39;;;;;;;7.55;4.72;;;14.60;99.90;;;;;;5053386;28;20628;-61
2022/09/24 12:19:14;;;;;;;8.02;4.63;;;14.50;99.90;;;;;;5053217;28;20203;-61
2022/09/24 12:21:44;;;;;;;7.95;4.72;;;14.60;99.90;;;;;;5053286;28;20202;-61
2022/09/24 12:24:28;;;;;;;6.93;3.92;;;14.60;99.90;;;;;;5053326;28;20198;-61
2022/09/24 12:26:57;;;;;;;9.38;4.13;;;14.50;99.90;;;;;;5053481;28;20163;-61
2022/09/24 12:35:27;;;;;;;7.38;4.05;;;14.50;99.90;;;;;;5053275;28;20205;-61
2022/09/24 12:38:03;;;;;;;8.13;4.32;;;14.50;99.90;;;;;;5053032;28;20171;-62
2022/09/24 12:41:01;;;;;;;7.10;4.30;;;14.50;99.90;;;;;;5052087;28;20178;-61
2022/09/24 12:43:36;;;;;;;6.95;4.50;;;14.50;99.90;;;;;;5053057;28;20660;-61
2022/09/24 12:46:04;;;;;;;7.72;4.22;;;14.50;99.90;;;;;;5053028;28;20189;-61
2022/09/24 12:48:35;;;;;;;7.70;3.95;;;14.40;99.90;;;;;;5053203;28;20171;-61
2022/09/24 12:51:04;;;;;;;7.53;4.65;;;14.40;99.90;;;;;;5053175;28;20237;-61
2022/09/24 12:53:35;;;;;;;9.00;4.47;;;14.40;99.90;;;;;;5052591;28;20163;-61
2022/09/24 12:56:03;;;;;;;4.93;4.20;;;14.40;99.90;;;;;;5050933;28;20197;-61
2022/09/24 12:58:39;;;;;;;6.00;4.72;;;14.30;99.90;;;;;;5050673;28;20167;-62
2022/09/24 13:01:26;;;;;;;7.15;4.43;;;14.30;99.90;;;;;;5051168;28;20175;-61
2022/09/24 13:04:15;;;;;;;8.93;4.20;;;14.30;99.90;;;;;;5051216;28;20287;-61
2022/09/24 13:06:42;;;;;;;5.63;3.33;;;14.30;99.90;;;;;;5051219;28;20175;-61
2022/09/24 13:09:37;;;;;;;7.68;3.10;;;14.20;99.90;;;;;;5051096;28;20179;-62
2022/09/24 13:12:13;;;;;;;5.28;3.00;;;14.20;99.90;;;;;;5051012;28;20206;-61
2022/09/24 13:14:42;;;;;;;7.38;3.42;;;14.20;99.90;;;;;;5052667;28;20221;-61